Aérodrome :
LOGIN :

S'inscrire | Disclaimer

   EN    FR    IT 

 










Légende :    VFR   VFR Marginal   IFR   IFR Intensif   IFR Très Intensif
Visi : 
Plafond : 
>= 8 km
>= 3000ft
5 à 8 km
1000 à 3000 ft
1500m à 5 km
500 à 1000 ft
800 à 1500m
200 à 500 ft
< 800m
< 200 ft
Symboles :   Orages  Brouillard  Fortes neiges  Fortes précipitations  Vent > 20 kt
SIGMETs :   Divers  Orages  Givrage  Turbulence  Onde Orograph.  Cendres Volcan.






- Altitude de l'aérodrome : 425 ft
- Code IATA : DTM


EDLW - Dortmund

DERNIER METAR :
  • 220250Z AUTO 17008KT 1800 1300 R24/1600N // BKN001/// BKN009/// M02/M02 Q1036

METARs EXPIRÉS :
  • 220220Z AUTO 17007KT 1700 1300 R24/1900U // BKN001/// M02/M02 Q1037
  • 220150Z AUTO 17007KT 2000 // BKN001/// M02/M02 Q1037
  • 220120Z AUTO 18006KT 1700 // BKN001/// BKN004/// M01/M02 Q1037
  • 220050Z AUTO VRB02KT 2300 1100 R24/1100U // BKN001/// BKN004/// M01/M02 Q1037
  • 220020Z AUTO 19004KT 6000 // SCT002/// M02/M02 Q1037

TAF TAF EDLW
Valide du 21 à 18h jusqu'au 22 à 18h UTC


211700Z 2118/2218 22005KT CAVOK
BECMG 2204/2207 3000 BR OVC007
PROB30
TEMPO 2207/2212 0800 FZFG OVC003
PROB30
TEMPO 2212/2218 1200 -RADZ OVC003



MET'MAP, la Météo Aéronautique d'un coup d'oeil ! - Copyright ORBIFLY Décembre 2007 - Disclaimer

ORBIFLY MET'MAP TEAM :

Programmation & Développement : Alexandra Zaïnal
Sur une idée originale de : Baudouin d'Aumeries
Assistance à la programmation : Marc-Olivier Méhu
Soutien technique & logistique : Manuel Goepfert

Contact : metmap@orbifly.com




SOURCES & CREDITS :

   NOAA